sensor_id;sensor_type;location;lat;lon;timestamp;temperature;humidity
57857;DHT22;43683;48.650;9.290;2024-03-17T00:01:49;5.00;96.50
57857;DHT22;43683;48.650;9.290;2024-03-17T00:04:15;5.00;96.30
57857;DHT22;43683;48.650;9.290;2024-03-17T00:06:40;5.00;96.20
57857;DHT22;43683;48.650;9.290;2024-03-17T00:09:06;5.00;96.30
57857;DHT22;43683;48.650;9.290;2024-03-17T00:11:35;4.90;96.30
57857;DHT22;43683;48.650;9.290;2024-03-17T00:14:01;4.90;96.50
57857;DHT22;43683;48.650;9.290;2024-03-17T00:16:26;4.90;96.50
57857;DHT22;43683;48.650;9.290;2024-03-17T00:18:53;5.00;96.40
57857;DHT22;43683;48.650;9.290;2024-03-17T00:21:18;5.00;96.30
57857;DHT22;43683;48.650;9.290;2024-03-17T00:23:47;5.10;96.20
57857;DHT22;43683;48.650;9.290;2024-03-17T00:26:12;5.10;96.20
57857;DHT22;43683;48.650;9.290;2024-03-17T00:28:38;5.00;96.30
57857;DHT22;43683;48.650;9.290;2024-03-17T00:31:05;5.10;96.30
57857;DHT22;43683;48.650;9.290;2024-03-17T00:33:30;5.20;96.10
57857;DHT22;43683;48.650;9.290;2024-03-17T00:35:56;5.30;96.10
57857;DHT22;43683;48.650;9.290;2024-03-17T00:38:21;5.40;96.00
57857;DHT22;43683;48.650;9.290;2024-03-17T00:40:47;5.50;95.90
57857;DHT22;43683;48.650;9.290;2024-03-17T00:43:14;5.60;95.80
57857;DHT22;43683;48.650;9.290;2024-03-17T00:45:40;5.70;95.80
57857;DHT22;43683;48.650;9.290;2024-03-17T00:48:05;5.70;95.70
57857;DHT22;43683;48.650;9.290;2024-03-17T00:50:34;5.60;95.80
57857;DHT22;43683;48.650;9.290;2024-03-17T00:53:00;5.50;95.90
57857;DHT22;43683;48.650;9.290;2024-03-17T00:55:28;5.60;95.90
57857;DHT22;43683;48.650;9.290;2024-03-17T00:57:53;5.60;95.80
57857;DHT22;43683;48.650;9.290;2024-03-17T01:00:19;5.60;95.80
57857;DHT22;43683;48.650;9.290;2024-03-17T01:02:45;5.50;95.90
57857;DHT22;43683;48.650;9.290;2024-03-17T01:05:11;5.40;96.00
57857;DHT22;43683;48.650;9.290;2024-03-17T01:07:37;5.30;96.10
57857;DHT22;43683;48.650;9.290;2024-03-17T01:10:02;5.20;96.30
57857;DHT22;43683;48.650;9.290;2024-03-17T01:12:28;5.20;96.40
57857;DHT22;43683;48.650;9.290;2024-03-17T01:14:54;5.20;96.40
57857;DHT22;43683;48.650;9.290;2024-03-17T01:17:19;5.30;96.40
57857;DHT22;43683;48.650;9.290;2024-03-17T01:19:45;5.40;96.40
57857;DHT22;43683;48.650;9.290;2024-03-17T01:22:10;5.50;96.30
57857;DHT22;43683;48.650;9.290;2024-03-17T01:24:36;5.60;96.20
57857;DHT22;43683;48.650;9.290;2024-03-17T01:27:02;5.60;96.20
57857;DHT22;43683;48.650;9.290;2024-03-17T01:29:28;5.60;96.20
57857;DHT22;43683;48.650;9.290;2024-03-17T01:31:54;5.60;96.20
57857;DHT22;43683;48.650;9.290;2024-03-17T01:34:19;5.70;96.50
57857;DHT22;43683;48.650;9.290;2024-03-17T01:36:45;5.70;96.20
57857;DHT22;43683;48.650;9.290;2024-03-17T01:39:11;5.80;96.10
57857;DHT22;43683;48.650;9.290;2024-03-17T01:41:37;5.80;96.00
57857;DHT22;43683;48.650;9.290;2024-03-17T01:44:02;5.90;95.90
57857;DHT22;43683;48.650;9.290;2024-03-17T01:46:28;6.00;95.90
57857;DHT22;43683;48.650;9.290;2024-03-17T01:48:54;6.00;95.90
57857;DHT22;43683;48.650;9.290;2024-03-17T01:51:20;6.10;95.80
57857;DHT22;43683;48.650;9.290;2024-03-17T01:53:46;6.20;95.80
57857;DHT22;43683;48.650;9.290;2024-03-17T01:56:12;6.20;95.70
57857;DHT22;43683;48.650;9.290;2024-03-17T01:58:39;6.20;95.70
57857;DHT22;43683;48.650;9.290;2024-03-17T02:01:08;6.20;95.70
57857;DHT22;43683;48.650;9.290;2024-03-17T02:03:33;6.20;95.80
57857;DHT22;43683;48.650;9.290;2024-03-17T02:05:59;6.20;95.80
57857;DHT22;43683;48.650;9.290;2024-03-17T02:08:25;6.10;95.80
57857;DHT22;43683;48.650;9.290;2024-03-17T02:10:54;6.20;95.90
57857;DHT22;43683;48.650;9.290;2024-03-17T02:13:21;6.10;95.90
57857;DHT22;43683;48.650;9.290;2024-03-17T02:15:47;6.20;95.90
57857;DHT22;43683;48.650;9.290;2024-03-17T02:18:13;6.20;95.90
57857;DHT22;43683;48.650;9.290;2024-03-17T02:20:39;6.20;95.90
57857;DHT22;43683;48.650;9.290;2024-03-17T02:23:23;6.20;95.90
57857;DHT22;43683;48.650;9.290;2024-03-17T02:25:52;6.30;95.90
57857;DHT22;43683;48.650;9.290;2024-03-17T02:28:17;6.40;95.90
57857;DHT22;43683;48.650;9.290;2024-03-17T02:30:43;6.40;95.90
57857;DHT22;43683;48.650;9.290;2024-03-17T02:33:08;6.40;95.90
57857;DHT22;43683;48.650;9.290;2024-03-17T02:35:34;6.30;95.90
57857;DHT22;43683;48.650;9.290;2024-03-17T02:37:59;6.20;96.10
57857;DHT22;43683;48.650;9.290;2024-03-17T02:40:25;6.20;96.20
57857;DHT22;43683;48.650;9.290;2024-03-17T02:42:50;6.20;96.30
57857;DHT22;43683;48.650;9.290;2024-03-17T02:45:16;6.10;96.40
57857;DHT22;43683;48.650;9.290;2024-03-17T02:47:42;6.00;96.50
57857;DHT22;43683;48.650;9.290;2024-03-17T02:50:08;6.00;96.60
57857;DHT22;43683;48.650;9.290;2024-03-17T02:52:34;5.90;96.60
57857;DHT22;43683;48.650;9.290;2024-03-17T02:55:00;5.90;96.70
57857;DHT22;43683;48.650;9.290;2024-03-17T02:57:26;5.80;96.70
57857;DHT22;43683;48.650;9.290;2024-03-17T02:59:56;5.80;96.70
57857;DHT22;43683;48.650;9.290;2024-03-17T03:02:22;5.80;96.70
57857;DHT22;43683;48.650;9.290;2024-03-17T03:04:47;5.90;96.60
57857;DHT22;43683;48.650;9.290;2024-03-17T03:07:13;5.90;96.50
57857;DHT22;43683;48.650;9.290;2024-03-17T03:09:39;5.80;96.50
57857;DHT22;43683;48.650;9.290;2024-03-17T03:12:04;5.80;96.60
57857;DHT22;43683;48.650;9.290;2024-03-17T03:14:30;5.80;96.60
57857;DHT22;43683;48.650;9.290;2024-03-17T03:16:57;5.90;96.50
57857;DHT22;43683;48.650;9.290;2024-03-17T03:19:23;6.00;96.30
57857;DHT22;43683;48.650;9.290;2024-03-17T03:21:49;6.10;96.20
57857;DHT22;43683;48.650;9.290;2024-03-17T03:24:16;6.10;96.10
57857;DHT22;43683;48.650;9.290;2024-03-17T03:26:41;6.10;96.10
57857;DHT22;43683;48.650;9.290;2024-03-17T03:29:07;6.20;96.00
57857;DHT22;43683;48.650;9.290;2024-03-17T03:31:33;6.20;95.90
57857;DHT22;43683;48.650;9.290;2024-03-17T03:33:59;6.20;95.90
57857;DHT22;43683;48.650;9.290;2024-03-17T03:36:27;6.20;96.00
57857;DHT22;43683;48.650;9.290;2024-03-17T03:38:53;6.10;96.20
57857;DHT22;43683;48.650;9.290;2024-03-17T03:41:19;6.00;96.30
57857;DHT22;43683;48.650;9.290;2024-03-17T03:43:45;6.00;96.30
57857;DHT22;43683;48.650;9.290;2024-03-17T03:46:12;6.10;96.40
57857;DHT22;43683;48.650;9.290;2024-03-17T03:48:38;6.00;96.30
57857;DHT22;43683;48.650;9.290;2024-03-17T03:51:05;6.00;96.30
57857;DHT22;43683;48.650;9.290;2024-03-17T03:53:31;6.00;96.40
57857;DHT22;43683;48.650;9.290;2024-03-17T03:55:57;6.00;96.40
57857;DHT22;43683;48.650;9.290;2024-03-17T03:58:23;6.00;96.40
57857;DHT22;43683;48.650;9.290;2024-03-17T04:00:49;5.90;96.40
57857;DHT22;43683;48.650;9.290;2024-03-17T04:03:15;5.90;96.50
57857;DHT22;43683;48.650;9.290;2024-03-17T04:05:41;5.80;96.70
57857;DHT22;43683;48.650;9.290;2024-03-17T04:08:06;5.80;96.90
57857;DHT22;43683;48.650;9.290;2024-03-17T04:10:34;5.90;96.70
57857;DHT22;43683;48.650;9.290;2024-03-17T04:12:59;6.00;96.90
57857;DHT22;43683;48.650;9.290;2024-03-17T04:15:25;6.10;96.50
57857;DHT22;43683;48.650;9.290;2024-03-17T04:17:50;6.10;96.30
57857;DHT22;43683;48.650;9.290;2024-03-17T04:20:16;6.10;96.30
57857;DHT22;43683;48.650;9.290;2024-03-17T04:22:42;6.20;96.30
57857;DHT22;43683;48.650;9.290;2024-03-17T04:25:11;6.20;96.30
57857;DHT22;43683;48.650;9.290;2024-03-17T04:27:38;6.20;96.30
57857;DHT22;43683;48.650;9.290;2024-03-17T04:30:05;6.20;96.30
57857;DHT22;43683;48.650;9.290;2024-03-17T04:32:31;6.20;96.30
57857;DHT22;43683;48.650;9.290;2024-03-17T04:34:57;6.20;96.20
57857;DHT22;43683;48.650;9.290;2024-03-17T04:37:22;6.20;96.20
57857;DHT22;43683;48.650;9.290;2024-03-17T04:39:50;6.10;96.30
57857;DHT22;43683;48.650;9.290;2024-03-17T04:42:17;6.00;96.50
57857;DHT22;43683;48.650;9.290;2024-03-17T04:44:46;5.90;96.60
57857;DHT22;43683;48.650;9.290;2024-03-17T04:47:12;5.90;96.70
57857;DHT22;43683;48.650;9.290;2024-03-17T04:49:43;5.80;96.80
57857;DHT22;43683;48.650;9.290;2024-03-17T04:52:11;5.90;96.90
57857;DHT22;43683;48.650;9.290;2024-03-17T04:54:36;5.90;96.80
57857;DHT22;43683;48.650;9.290;2024-03-17T04:57:02;5.90;96.70
57857;DHT22;43683;48.650;9.290;2024-03-17T04:59:28;5.80;96.70
57857;DHT22;43683;48.650;9.290;2024-03-17T05:01:54;5.80;96.90
57857;DHT22;43683;48.650;9.290;2024-03-17T05:04:20;5.80;96.90
57857;DHT22;43683;48.650;9.290;2024-03-17T05:06:46;5.80;96.90
57857;DHT22;43683;48.650;9.290;2024-03-17T05:09:12;5.90;96.90
57857;DHT22;43683;48.650;9.290;2024-03-17T05:11:39;5.90;96.80
57857;DHT22;43683;48.650;9.290;2024-03-17T05:14:04;5.90;96.80
57857;DHT22;43683;48.650;9.290;2024-03-17T05:16:30;6.00;96.80
57857;DHT22;43683;48.650;9.290;2024-03-17T05:18:56;6.00;96.80
57857;DHT22;43683;48.650;9.290;2024-03-17T05:21:22;6.00;96.70
57857;DHT22;43683;48.650;9.290;2024-03-17T05:23:49;6.00;96.80
57857;DHT22;43683;48.650;9.290;2024-03-17T05:26:14;5.90;96.80
57857;DHT22;43683;48.650;9.290;2024-03-17T05:28:40;5.90;96.90
57857;DHT22;43683;48.650;9.290;2024-03-17T05:31:05;5.90;96.90
57857;DHT22;43683;48.650;9.290;2024-03-17T05:33:31;5.80;97.00
57857;DHT22;43683;48.650;9.290;2024-03-17T05:35:58;5.80;97.10
57857;DHT22;43683;48.650;9.290;2024-03-17T05:38:28;5.80;97.10
57857;DHT22;43683;48.650;9.290;2024-03-17T05:40:55;5.80;97.00
57857;DHT22;43683;48.650;9.290;2024-03-17T05:43:22;5.80;97.00
57857;DHT22;43683;48.650;9.290;2024-03-17T05:45:59;5.80;97.00
57857;DHT22;43683;48.650;9.290;2024-03-17T05:48:24;5.80;97.00
57857;DHT22;43683;48.650;9.290;2024-03-17T05:50:50;6.00;96.90
57857;DHT22;43683;48.650;9.290;2024-03-17T05:53:19;6.00;96.80
57857;DHT22;43683;48.650;9.290;2024-03-17T05:55:45;6.00;96.70
57857;DHT22;43683;48.650;9.290;2024-03-17T05:58:11;6.00;96.70
57857;DHT22;43683;48.650;9.290;2024-03-17T06:00:37;6.00;96.70
57857;DHT22;43683;48.650;9.290;2024-03-17T06:03:03;6.00;96.70
57857;DHT22;43683;48.650;9.290;2024-03-17T06:05:39;6.10;96.80
57857;DHT22;43683;48.650;9.290;2024-03-17T06:08:06;6.10;96.80
57857;DHT22;43683;48.650;9.290;2024-03-17T06:10:34;6.20;96.70
57857;DHT22;43683;48.650;9.290;2024-03-17T06:13:00;6.30;96.60
57857;DHT22;43683;48.650;9.290;2024-03-17T06:15:26;6.50;96.50
57857;DHT22;43683;48.650;9.290;2024-03-17T06:17:52;6.60;96.30
57857;DHT22;43683;48.650;9.290;2024-03-17T06:20:27;6.50;96.30
57857;DHT22;43683;48.650;9.290;2024-03-17T06:22:54;6.40;96.50
57857;DHT22;43683;48.650;9.290;2024-03-17T06:25:19;6.30;96.70
57857;DHT22;43683;48.650;9.290;2024-03-17T06:27:45;6.10;97.00
57857;DHT22;43683;48.650;9.290;2024-03-17T06:30:12;6.10;97.30
57857;DHT22;43683;48.650;9.290;2024-03-17T06:32:40;6.30;97.40
57857;DHT22;43683;48.650;9.290;2024-03-17T06:35:06;6.60;97.10
57857;DHT22;43683;48.650;9.290;2024-03-17T06:37:32;6.80;96.70
57857;DHT22;43683;48.650;9.290;2024-03-17T06:39:58;6.80;96.60
57857;DHT22;43683;48.650;9.290;2024-03-17T06:42:24;6.80;96.60
57857;DHT22;43683;48.650;9.290;2024-03-17T06:44:49;6.80;96.70
57857;DHT22;43683;48.650;9.290;2024-03-17T06:47:15;6.80;96.90
57857;DHT22;43683;48.650;9.290;2024-03-17T06:49:40;6.90;96.90
57857;DHT22;43683;48.650;9.290;2024-03-17T06:52:06;7.00;96.80
57857;DHT22;43683;48.650;9.290;2024-03-17T06:54:31;7.00;96.80
57857;DHT22;43683;48.650;9.290;2024-03-17T06:56:58;7.00;97.00
57857;DHT22;43683;48.650;9.290;2024-03-17T06:59:24;7.10;97.20
57857;DHT22;43683;48.650;9.290;2024-03-17T07:01:50;7.30;97.50
57857;DHT22;43683;48.650;9.290;2024-03-17T07:04:16;7.60;97.60
57857;DHT22;43683;48.650;9.290;2024-03-17T07:06:42;8.00;97.10
57857;DHT22;43683;48.650;9.290;2024-03-17T07:09:08;8.30;96.20
57857;DHT22;43683;48.650;9.290;2024-03-17T07:11:34;8.70;95.60
57857;DHT22;43683;48.650;9.290;2024-03-17T07:14:00;8.80;95.10
57857;DHT22;43683;48.650;9.290;2024-03-17T07:16:25;8.80;94.80
57857;DHT22;43683;48.650;9.290;2024-03-17T07:18:51;8.70;94.90
57857;DHT22;43683;48.650;9.290;2024-03-17T07:21:24;8.70;94.90
57857;DHT22;43683;48.650;9.290;2024-03-17T07:23:49;8.60;95.00
57857;DHT22;43683;48.650;9.290;2024-03-17T07:26:15;8.60;94.90
57857;DHT22;43683;48.650;9.290;2024-03-17T07:28:40;8.70;94.80
57857;DHT22;43683;48.650;9.290;2024-03-17T07:31:08;8.80;94.70
57857;DHT22;43683;48.650;9.290;2024-03-17T07:33:34;8.90;94.60
57857;DHT22;43683;48.650;9.290;2024-03-17T07:36:00;9.10;94.30
57857;DHT22;43683;48.650;9.290;2024-03-17T07:38:27;9.20;94.10
57857;DHT22;43683;48.650;9.290;2024-03-17T07:40:59;9.30;93.90
57857;DHT22;43683;48.650;9.290;2024-03-17T07:43:26;9.50;94.00
57857;DHT22;43683;48.650;9.290;2024-03-17T07:46:08;9.80;93.90
57857;DHT22;43683;48.650;9.290;2024-03-17T07:48:37;10.30;93.30
57857;DHT22;43683;48.650;9.290;2024-03-17T07:51:09;10.70;92.60
57857;DHT22;43683;48.650;9.290;2024-03-17T07:53:36;10.80;92.10
57857;DHT22;43683;48.650;9.290;2024-03-17T07:56:04;11.00;92.10
57857;DHT22;43683;48.650;9.290;2024-03-17T07:58:31;11.00;92.00
57857;DHT22;43683;48.650;9.290;2024-03-17T08:01:03;11.10;92.00
57857;DHT22;43683;48.650;9.290;2024-03-17T08:03:30;11.20;91.90
57857;DHT22;43683;48.650;9.290;2024-03-17T08:05:57;11.30;91.80
57857;DHT22;43683;48.650;9.290;2024-03-17T08:08:23;11.60;91.60
57857;DHT22;43683;48.650;9.290;2024-03-17T08:10:48;11.80;91.00
57857;DHT22;43683;48.650;9.290;2024-03-17T08:13:15;12.00;90.60
57857;DHT22;43683;48.650;9.290;2024-03-17T08:15:44;12.00;90.20
57857;DHT22;43683;48.650;9.290;2024-03-17T08:18:14;11.90;90.10
57857;DHT22;43683;48.650;9.290;2024-03-17T08:20:41;12.00;89.90
57857;DHT22;43683;48.650;9.290;2024-03-17T08:23:08;12.20;89.40
57857;DHT22;43683;48.650;9.290;2024-03-17T08:25:34;12.30;88.40
57857;DHT22;43683;48.650;9.290;2024-03-17T08:28:00;12.40;87.70
57857;DHT22;43683;48.650;9.290;2024-03-17T08:30:26;12.40;87.30
57857;DHT22;43683;48.650;9.290;2024-03-17T08:32:51;12.80;87.40
57857;DHT22;43683;48.650;9.290;2024-03-17T08:35:17;12.90;86.80
57857;DHT22;43683;48.650;9.290;2024-03-17T08:37:42;12.80;86.80
57857;DHT22;43683;48.650;9.290;2024-03-17T08:40:09;12.80;86.20
57857;DHT22;43683;48.650;9.290;2024-03-17T08:42:36;12.90;85.70
57857;DHT22;43683;48.650;9.290;2024-03-17T08:45:01;12.90;85.70
57857;DHT22;43683;48.650;9.290;2024-03-17T08:47:31;12.90;85.40
57857;DHT22;43683;48.650;9.290;2024-03-17T08:49:56;13.00;85.40
57857;DHT22;43683;48.650;9.290;2024-03-17T08:52:23;13.20;84.80
57857;DHT22;43683;48.650;9.290;2024-03-17T08:54:49;13.50;84.40
57857;DHT22;43683;48.650;9.290;2024-03-17T08:57:17;13.70;84.20
57857;DHT22;43683;48.650;9.290;2024-03-17T08:59:46;14.10;83.20
57857;DHT22;43683;48.650;9.290;2024-03-17T09:02:13;14.30;81.90
57857;DHT22;43683;48.650;9.290;2024-03-17T09:04:42;14.50;81.40
57857;DHT22;43683;48.650;9.290;2024-03-17T09:07:08;14.70;81.50
57857;DHT22;43683;48.650;9.290;2024-03-17T09:09:33;14.80;81.00
57857;DHT22;43683;48.650;9.290;2024-03-17T09:11:59;15.00;80.40
57857;DHT22;43683;48.650;9.290;2024-03-17T09:14:25;15.00;79.90
57857;DHT22;43683;48.650;9.290;2024-03-17T09:16:50;15.10;79.00
57857;DHT22;43683;48.650;9.290;2024-03-17T09:19:16;15.30;78.10
57857;DHT22;43683;48.650;9.290;2024-03-17T09:21:41;15.40;77.50
57857;DHT22;43683;48.650;9.290;2024-03-17T09:24:08;15.40;76.60
57857;DHT22;43683;48.650;9.290;2024-03-17T09:26:34;15.30;75.90
57857;DHT22;43683;48.650;9.290;2024-03-17T09:29:00;15.30;75.30
57857;DHT22;43683;48.650;9.290;2024-03-17T09:31:26;15.30;74.40
57857;DHT22;43683;48.650;9.290;2024-03-17T09:33:52;15.50;73.70
57857;DHT22;43683;48.650;9.290;2024-03-17T09:36:17;15.60;72.80
57857;DHT22;43683;48.650;9.290;2024-03-17T09:38:43;15.70;72.00
57857;DHT22;43683;48.650;9.290;2024-03-17T09:43:44;15.70;70.20
57857;DHT22;43683;48.650;9.290;2024-03-17T09:46:11;15.60;70.50
57857;DHT22;43683;48.650;9.290;2024-03-17T09:48:37;15.70;70.00
57857;DHT22;43683;48.650;9.290;2024-03-17T09:51:03;15.80;69.00
57857;DHT22;43683;48.650;9.290;2024-03-17T09:53:31;15.80;68.40
57857;DHT22;43683;48.650;9.290;2024-03-17T09:55:59;15.80;67.30
57857;DHT22;43683;48.650;9.290;2024-03-17T09:58:25;15.80;67.00
57857;DHT22;43683;48.650;9.290;2024-03-17T10:00:51;15.80;66.60
57857;DHT22;43683;48.650;9.290;2024-03-17T10:03:45;15.70;66.50
57857;DHT22;43683;48.650;9.290;2024-03-17T10:06:15;15.70;65.30
57857;DHT22;43683;48.650;9.290;2024-03-17T10:11:20;15.60;65.90
57857;DHT22;43683;48.650;9.290;2024-03-17T10:13:47;15.60;65.00
57857;DHT22;43683;48.650;9.290;2024-03-17T10:16:24;15.40;64.80
57857;DHT22;43683;48.650;9.290;2024-03-17T10:18:51;15.40;64.40
57857;DHT22;43683;48.650;9.290;2024-03-17T10:21:25;15.60;64.70
57857;DHT22;43683;48.650;9.290;2024-03-17T10:26:59;16.40;62.90
57857;DHT22;43683;48.650;9.290;2024-03-17T10:29:31;16.50;62.80
57857;DHT22;43683;48.650;9.290;2024-03-17T10:32:19;16.70;62.00
57857;DHT22;43683;48.650;9.290;2024-03-17T10:34:44;16.80;61.80
57857;DHT22;43683;48.650;9.290;2024-03-17T10:37:20;16.60;61.50
57857;DHT22;43683;48.650;9.290;2024-03-17T10:39:51;16.50;61.30
57857;DHT22;43683;48.650;9.290;2024-03-17T10:42:27;16.60;61.40
57857;DHT22;43683;48.650;9.290;2024-03-17T10:45:01;17.00;60.60
57857;DHT22;43683;48.650;9.290;2024-03-17T10:47:33;17.30;60.40
57857;DHT22;43683;48.650;9.290;2024-03-17T10:50:00;17.40;59.90
57857;DHT22;43683;48.650;9.290;2024-03-17T10:52:30;17.20;59.60
57857;DHT22;43683;48.650;9.290;2024-03-17T10:55:02;17.00;59.80
57857;DHT22;43683;48.650;9.290;2024-03-17T11:00:03;17.50;59.30
57857;DHT22;43683;48.650;9.290;2024-03-17T11:02:31;17.70;58.90
57857;DHT22;43683;48.650;9.290;2024-03-17T11:04:59;17.80;58.60
57857;DHT22;43683;48.650;9.290;2024-03-17T11:07:26;17.90;58.80
57857;DHT22;43683;48.650;9.290;2024-03-17T11:09:54;18.20;58.80
57857;DHT22;43683;48.650;9.290;2024-03-17T11:12:47;18.50;59.00
57857;DHT22;43683;48.650;9.290;2024-03-17T11:17:56;18.80;57.50
57857;DHT22;43683;48.650;9.290;2024-03-17T11:21:06;18.60;57.50
57857;DHT22;43683;48.650;9.290;2024-03-17T11:23:41;18.20;57.20
57857;DHT22;43683;48.650;9.290;2024-03-17T11:26:08;17.90;58.30
57857;DHT22;43683;48.650;9.290;2024-03-17T11:31:44;17.60;57.20
57857;DHT22;43683;48.650;9.290;2024-03-17T11:34:35;17.50;57.20
57857;DHT22;43683;48.650;9.290;2024-03-17T11:37:03;17.40;57.10
57857;DHT22;43683;48.650;9.290;2024-03-17T11:39:47;17.20;57.50
57857;DHT22;43683;48.650;9.290;2024-03-17T11:42:15;17.00;58.20
57857;DHT22;43683;48.650;9.290;2024-03-17T11:45:02;16.90;58.30
57857;DHT22;43683;48.650;9.290;2024-03-17T11:47:40;16.60;57.90
57857;DHT22;43683;48.650;9.290;2024-03-17T11:50:08;16.50;57.90
57857;DHT22;43683;48.650;9.290;2024-03-17T11:52:35;16.30;58.10
57857;DHT22;43683;48.650;9.290;2024-03-17T11:55:01;16.50;58.20
57857;DHT22;43683;48.650;9.290;2024-03-17T11:57:27;16.50;57.80
57857;DHT22;43683;48.650;9.290;2024-03-17T11:59:54;16.50;57.80
57857;DHT22;43683;48.650;9.290;2024-03-17T12:02:21;16.40;57.70
57857;DHT22;43683;48.650;9.290;2024-03-17T12:04:50;16.50;57.40
57857;DHT22;43683;48.650;9.290;2024-03-17T12:07:18;16.60;57.30
57857;DHT22;43683;48.650;9.290;2024-03-17T12:09:45;16.50;57.10
57857;DHT22;43683;48.650;9.290;2024-03-17T12:12:27;16.40;57.30
57857;DHT22;43683;48.650;9.290;2024-03-17T12:15:03;16.20;57.40
57857;DHT22;43683;48.650;9.290;2024-03-17T12:17:36;16.30;58.00
57857;DHT22;43683;48.650;9.290;2024-03-17T12:20:02;16.40;57.80
57857;DHT22;43683;48.650;9.290;2024-03-17T12:22:29;16.60;57.60
57857;DHT22;43683;48.650;9.290;2024-03-17T12:24:58;16.70;57.40
57857;DHT22;43683;48.650;9.290;2024-03-17T12:27:26;16.70;57.10
57857;DHT22;43683;48.650;9.290;2024-03-17T12:29:52;16.80;56.90
57857;DHT22;43683;48.650;9.290;2024-03-17T12:32:20;17.00;56.90
57857;DHT22;43683;48.650;9.290;2024-03-17T12:34:51;17.10;57.00
57857;DHT22;43683;48.650;9.290;2024-03-17T12:37:21;17.00;56.60
57857;DHT22;43683;48.650;9.290;2024-03-17T12:39:47;17.10;56.40
57857;DHT22;43683;48.650;9.290;2024-03-17T12:42:14;17.10;56.20
57857;DHT22;43683;48.650;9.290;2024-03-17T12:44:59;16.90;56.10
57857;DHT22;43683;48.650;9.290;2024-03-17T12:47:30;16.90;56.50
57857;DHT22;43683;48.650;9.290;2024-03-17T12:50:00;17.00;56.50
57857;DHT22;43683;48.650;9.290;2024-03-17T12:52:27;16.90;56.70
57857;DHT22;43683;48.650;9.290;2024-03-17T12:57:50;16.70;56.30
57857;DHT22;43683;48.650;9.290;2024-03-17T13:00:35;16.60;56.30
57857;DHT22;43683;48.650;9.290;2024-03-17T13:03:04;16.50;56.80
57857;DHT22;43683;48.650;9.290;2024-03-17T13:05:34;16.50;56.70
57857;DHT22;43683;48.650;9.290;2024-03-17T13:08:00;16.40;56.80
57857;DHT22;43683;48.650;9.290;2024-03-17T13:10:27;16.40;57.40
57857;DHT22;43683;48.650;9.290;2024-03-17T13:13:08;16.40;57.00
57857;DHT22;43683;48.650;9.290;2024-03-17T13:15:34;16.40;56.80
57857;DHT22;43683;48.650;9.290;2024-03-17T13:18:04;16.50;56.90
57857;DHT22;43683;48.650;9.290;2024-03-17T13:20:31;16.60;56.60
57857;DHT22;43683;48.650;9.290;2024-03-17T13:22:57;16.60;56.60
57857;DHT22;43683;48.650;9.290;2024-03-17T13:25:25;16.70;56.50
57857;DHT22;43683;48.650;9.290;2024-03-17T13:28:02;16.70;57.10
57857;DHT22;43683;48.650;9.290;2024-03-17T13:30:29;16.70;56.00
57857;DHT22;43683;48.650;9.290;2024-03-17T13:32:55;16.70;55.90
57857;DHT22;43683;48.650;9.290;2024-03-17T13:35:24;16.70;55.70
57857;DHT22;43683;48.650;9.290;2024-03-17T13:37:51;16.70;55.60
57857;DHT22;43683;48.650;9.290;2024-03-17T13:40:18;16.80;55.60
57857;DHT22;43683;48.650;9.290;2024-03-17T13:42:46;17.00;55.70
57857;DHT22;43683;48.650;9.290;2024-03-17T13:45:12;17.10;55.00
57857;DHT22;43683;48.650;9.290;2024-03-17T13:47:39;17.10;55.40
57857;DHT22;43683;48.650;9.290;2024-03-17T13:50:05;17.00;55.20
57857;DHT22;43683;48.650;9.290;2024-03-17T13:52:44;16.80;55.20
57857;DHT22;43683;48.650;9.290;2024-03-17T13:55:16;16.70;55.20
57857;DHT22;43683;48.650;9.290;2024-03-17T13:57:47;16.70;55.40
57857;DHT22;43683;48.650;9.290;2024-03-17T14:00:13;16.80;55.40
57857;DHT22;43683;48.650;9.290;2024-03-17T14:02:46;16.90;55.50
57857;DHT22;43683;48.650;9.290;2024-03-17T14:05:13;17.10;55.30
57857;DHT22;43683;48.650;9.290;2024-03-17T14:07:39;17.20;55.00
57857;DHT22;43683;48.650;9.290;2024-03-17T14:10:05;17.30;54.60
57857;DHT22;43683;48.650;9.290;2024-03-17T14:12:31;17.40;54.80
57857;DHT22;43683;48.650;9.290;2024-03-17T14:14:57;17.40;54.60
57857;DHT22;43683;48.650;9.290;2024-03-17T14:17:22;17.40;54.20
57857;DHT22;43683;48.650;9.290;2024-03-17T14:19:48;17.30;54.00
57857;DHT22;43683;48.650;9.290;2024-03-17T14:22:13;17.20;54.10
57857;DHT22;43683;48.650;9.290;2024-03-17T14:24:40;17.30;54.40
57857;DHT22;43683;48.650;9.290;2024-03-17T14:27:09;17.50;54.20
57857;DHT22;43683;48.650;9.290;2024-03-17T14:29:37;17.40;54.10
57857;DHT22;43683;48.650;9.290;2024-03-17T14:32:03;17.30;54.00
57857;DHT22;43683;48.650;9.290;2024-03-17T14:34:28;17.20;54.10
57857;DHT22;43683;48.650;9.290;2024-03-17T14:37:03;16.90;54.20
57857;DHT22;43683;48.650;9.290;2024-03-17T14:39:30;16.90;54.30
57857;DHT22;43683;48.650;9.290;2024-03-17T14:41:55;16.90;54.20
57857;DHT22;43683;48.650;9.290;2024-03-17T14:44:22;16.80;54.10
57857;DHT22;43683;48.650;9.290;2024-03-17T14:46:48;16.80;54.10
57857;DHT22;43683;48.650;9.290;2024-03-17T14:49:17;16.70;54.00
57857;DHT22;43683;48.650;9.290;2024-03-17T14:51:42;16.70;53.90
57857;DHT22;43683;48.650;9.290;2024-03-17T14:54:08;16.70;53.80
57857;DHT22;43683;48.650;9.290;2024-03-17T14:56:35;16.80;53.90
57857;DHT22;43683;48.650;9.290;2024-03-17T14:59:00;16.70;54.00
57857;DHT22;43683;48.650;9.290;2024-03-17T15:01:26;16.70;54.00
57857;DHT22;43683;48.650;9.290;2024-03-17T15:03:55;16.70;53.90
57857;DHT22;43683;48.650;9.290;2024-03-17T15:06:20;16.70;54.00
57857;DHT22;43683;48.650;9.290;2024-03-17T15:08:46;16.60;54.20
57857;DHT22;43683;48.650;9.290;2024-03-17T15:11:11;16.50;54.30
57857;DHT22;43683;48.650;9.290;2024-03-17T15:13:37;16.40;54.50
57857;DHT22;43683;48.650;9.290;2024-03-17T15:16:03;16.10;54.90
57857;DHT22;43683;48.650;9.290;2024-03-17T15:18:30;15.90;55.20
57857;DHT22;43683;48.650;9.290;2024-03-17T15:20:56;15.60;55.50
57857;DHT22;43683;48.650;9.290;2024-03-17T15:23:22;15.40;55.90
57857;DHT22;43683;48.650;9.290;2024-03-17T15:25:47;15.20;56.40
57857;DHT22;43683;48.650;9.290;2024-03-17T15:28:13;15.10;56.70
57857;DHT22;43683;48.650;9.290;2024-03-17T15:30:39;15.00;56.90
57857;DHT22;43683;48.650;9.290;2024-03-17T15:33:05;15.00;56.90
57857;DHT22;43683;48.650;9.290;2024-03-17T15:35:30;15.00;56.90
57857;DHT22;43683;48.650;9.290;2024-03-17T15:37:57;15.10;56.80
57857;DHT22;43683;48.650;9.290;2024-03-17T15:40:23;15.10;56.70
57857;DHT22;43683;48.650;9.290;2024-03-17T15:42:50;15.10;56.70
57857;DHT22;43683;48.650;9.290;2024-03-17T15:45:16;15.10;56.70
57857;DHT22;43683;48.650;9.290;2024-03-17T15:47:45;15.00;56.80
57857;DHT22;43683;48.650;9.290;2024-03-17T15:50:11;15.00;57.00
57857;DHT22;43683;48.650;9.290;2024-03-17T15:52:40;14.90;57.10
57857;DHT22;43683;48.650;9.290;2024-03-17T15:55:08;14.80;57.20
57857;DHT22;43683;48.650;9.290;2024-03-17T15:57:34;14.60;57.30
57857;DHT22;43683;48.650;9.290;2024-03-17T15:59:59;14.50;57.60